createdAt,value
2023-04-15T00:00:58.498Z,81.50
2023-04-15T00:03:25.602Z,81.45
2023-04-15T00:05:52.254Z,80.96
2023-04-15T00:08:19.434Z,81.68
2023-04-15T00:10:46.735Z,81.55
2023-04-15T00:13:13.458Z,81.17
2023-04-15T00:15:39.979Z,81.48
2023-04-15T00:18:07.990Z,81.16
2023-04-15T00:20:35.226Z,81.97
2023-04-15T00:23:02.555Z,81.26
2023-04-15T00:25:29.235Z,81.06
2023-04-15T00:27:55.804Z,81.40
2023-04-15T00:30:22.444Z,81.66
2023-04-15T00:32:49.574Z,81.75
2023-04-15T00:35:16.498Z,81.31
2023-04-15T00:37:44.232Z,81.12
2023-04-15T00:40:13.817Z,80.97
2023-04-15T00:42:40.700Z,80.50
2023-04-15T00:45:08.731Z,80.66
2023-04-15T00:47:35.608Z,80.45
2023-04-15T00:50:02.171Z,80.76
2023-04-15T00:52:28.634Z,80.54
2023-04-15T00:54:55.455Z,80.12
2023-04-15T00:57:22.374Z,80.95
2023-04-15T00:59:48.926Z,81.59
2023-04-15T01:02:15.518Z,82.55
2023-04-15T01:04:42.215Z,80.52
2023-04-15T01:07:09.177Z,80.59
2023-04-15T01:09:35.722Z,80.79
2023-04-15T01:12:02.556Z,81.03
2023-04-15T01:14:29.054Z,80.39
2023-04-15T01:16:55.606Z,80.54
2023-04-15T01:19:22.065Z,81.04
2023-04-15T01:21:48.532Z,80.87
2023-04-15T01:24:16.394Z,80.62
2023-04-15T01:26:44.474Z,81.55
2023-04-15T01:29:11.185Z,80.75
2023-04-15T01:31:37.854Z,81.11
2023-04-15T01:34:04.691Z,80.90
2023-04-15T01:36:31.151Z,80.93
2023-04-15T01:38:57.791Z,80.46
2023-04-15T01:41:28.018Z,80.69
2023-04-15T01:43:54.953Z,81.56
2023-04-15T01:46:21.545Z,81.42
2023-04-15T01:48:48.068Z,81.00
2023-04-15T01:51:14.579Z,81.39
2023-04-15T01:53:41.092Z,81.49
2023-04-15T01:56:08.058Z,80.72
2023-04-15T01:58:34.546Z,81.49
2023-04-15T02:01:01.832Z,80.88
2023-04-15T02:03:29.568Z,81.46
2023-04-15T02:05:56.654Z,81.63
2023-04-15T02:08:23.199Z,81.29
2023-04-15T02:10:49.723Z,80.97
2023-04-15T02:13:17.019Z,81.68
2023-04-15T02:15:49.926Z,81.18
2023-04-15T02:18:16.700Z,81.79
2023-04-15T02:20:46.968Z,81.93
2023-04-15T02:23:13.659Z,81.58
2023-04-15T02:25:40.452Z,82.28
2023-04-15T02:28:06.931Z,81.42
2023-04-15T02:30:33.950Z,81.98
2023-04-15T02:33:00.986Z,81.93
2023-04-15T02:35:27.735Z,80.89
2023-04-15T02:37:54.248Z,81.35
2023-04-15T02:40:20.748Z,81.50
2023-04-15T02:42:47.312Z,81.20
2023-04-15T02:45:14.073Z,81.18
2023-04-15T02:47:41.620Z,81.18
2023-04-15T02:50:09.573Z,81.34
2023-04-15T02:52:36.102Z,81.19
2023-04-15T02:55:04.271Z,81.88
2023-04-15T02:57:30.969Z,81.89
2023-04-15T02:59:57.534Z,81.96
2023-04-15T03:02:24.335Z,82.67
2023-04-15T03:04:51.151Z,82.42
2023-04-15T03:07:18.428Z,82.92
2023-04-15T03:09:45.866Z,83.45
2023-04-15T03:12:12.394Z,83.12
2023-04-15T03:14:39.004Z,83.88
2023-04-15T03:17:05.482Z,84.41
2023-04-15T03:19:31.972Z,84.62
2023-04-15T03:21:58.513Z,84.94
2023-04-15T03:24:25.017Z,84.61
2023-04-15T03:26:51.507Z,84.55
2023-04-15T03:29:18.073Z,86.12
2023-04-15T03:31:44.532Z,86.79
2023-04-15T03:34:11.048Z,87.89
2023-04-15T03:36:37.573Z,87.27
2023-04-15T03:39:04.249Z,87.54
2023-04-15T03:41:31.008Z,87.58
2023-04-15T03:43:57.536Z,87.98
2023-04-15T03:46:24.103Z,88.37
2023-04-15T03:48:50.587Z,88.79
2023-04-15T03:51:17.107Z,88.52
2023-04-15T03:53:43.592Z,88.71
2023-04-15T03:56:10.081Z,89.15
2023-04-15T03:58:36.670Z,88.53
2023-04-15T04:01:03.169Z,89.56
2023-04-15T04:03:29.820Z,89.90
2023-04-15T04:05:56.704Z,89.79
2023-04-15T04:08:23.140Z,89.25
2023-04-15T04:10:49.622Z,89.72
2023-04-15T04:13:16.647Z,89.81
2023-04-15T04:15:43.124Z,89.85
2023-04-15T04:18:09.605Z,89.96
2023-04-15T04:20:36.185Z,89.82
2023-04-15T04:23:02.660Z,90.03
2023-04-15T04:25:29.131Z,90.49
2023-04-15T04:27:55.599Z,91.05
2023-04-15T04:30:22.146Z,91.10
2023-04-15T04:32:49.796Z,91.08
2023-04-15T04:35:16.675Z,91.35
2023-04-15T04:37:43.157Z,90.95
2023-04-15T04:40:10.583Z,91.97
2023-04-15T04:42:39.373Z,91.78
2023-04-15T04:45:07.397Z,91.92
2023-04-15T04:47:33.915Z,91.26
2023-04-15T04:50:00.525Z,92.26
2023-04-15T04:52:27.010Z,92.21
2023-04-15T04:54:53.508Z,92.30
2023-04-15T04:57:20.005Z,93.05
2023-04-15T04:59:46.563Z,92.75
2023-04-15T05:02:13.073Z,92.42
2023-04-15T05:04:39.695Z,91.67
2023-04-15T05:07:06.162Z,92.32
2023-04-15T05:09:33.882Z,91.88
2023-04-15T05:12:01.381Z,92.14
2023-04-15T05:14:27.995Z,91.45
2023-04-15T05:16:54.467Z,91.98
2023-04-15T05:19:21.121Z,91.29
2023-04-15T05:21:47.585Z,91.82
2023-04-15T05:24:14.051Z,90.80
2023-04-15T05:26:41.521Z,91.21
2023-04-15T05:29:08.894Z,90.90
2023-04-15T05:31:35.411Z,91.59
2023-04-15T05:34:02.043Z,90.59
2023-04-15T05:36:28.745Z,90.42
2023-04-15T05:38:55.464Z,90.60
2023-04-15T05:41:22.197Z,89.94
2023-04-15T05:43:48.717Z,89.80
2023-04-15T05:46:15.286Z,89.95
2023-04-15T05:48:41.775Z,90.40
2023-04-15T05:51:08.257Z,90.29
2023-04-15T05:53:34.718Z,89.70
2023-04-15T05:56:01.496Z,89.99
2023-04-15T05:58:28.058Z,89.71
2023-04-15T06:00:54.936Z,89.89
2023-04-15T06:03:23.006Z,90.01
2023-04-15T06:05:49.830Z,89.90
2023-04-15T06:08:16.300Z,88.86
2023-04-15T06:10:42.813Z,88.73
2023-04-15T06:13:09.271Z,88.95
2023-04-15T06:15:35.885Z,89.54
2023-04-15T06:18:03.169Z,89.25
2023-04-15T06:20:29.752Z,89.33
2023-04-15T06:22:56.331Z,89.38
2023-04-15T06:25:23.607Z,89.82
2023-04-15T06:27:50.259Z,88.83
2023-04-15T06:30:17.006Z,88.61
2023-04-15T06:32:43.651Z,89.60
2023-04-15T06:35:10.435Z,89.71
2023-04-15T06:37:36.933Z,87.64
2023-04-15T06:40:05.212Z,88.00
2023-04-15T06:42:31.831Z,87.92
2023-04-15T06:44:58.319Z,87.95
2023-04-15T06:47:24.851Z,87.95
2023-04-15T06:49:51.885Z,88.46
2023-04-15T06:52:18.427Z,87.91
2023-04-15T06:54:44.924Z,87.64
2023-04-15T06:57:11.410Z,87.89
2023-04-15T06:59:38.037Z,88.13
2023-04-15T07:02:04.974Z,88.75
2023-04-15T07:04:31.616Z,88.56
2023-04-15T07:06:58.211Z,89.34
2023-04-15T07:09:24.875Z,89.02
2023-04-15T07:11:51.548Z,88.57
2023-04-15T07:14:18.188Z,88.93
2023-04-15T07:16:44.783Z,87.70
2023-04-15T07:19:11.746Z,87.44
2023-04-15T07:21:39.989Z,87.47
2023-04-15T07:24:07.895Z,86.76
2023-04-15T07:26:34.385Z,87.09
2023-04-15T07:29:01.323Z,86.96
2023-04-15T07:31:28.566Z,87.99
2023-04-15T07:33:55.202Z,87.73
2023-04-15T07:36:21.660Z,87.23
2023-04-15T07:38:48.405Z,86.40
2023-04-15T07:41:15.911Z,87.61
2023-04-15T07:43:43.003Z,87.41
2023-04-15T07:46:11.489Z,88.59
2023-04-15T07:48:38.004Z,87.59
2023-04-15T07:51:04.738Z,87.92
2023-04-15T07:53:31.399Z,88.25
2023-04-15T07:55:58.287Z,87.69
2023-04-15T07:58:25.075Z,88.08
2023-04-15T08:00:51.694Z,88.87
2023-04-15T08:03:18.415Z,87.87
2023-04-15T08:05:45.497Z,87.76
2023-04-15T08:08:12.045Z,88.25
2023-04-15T08:10:38.532Z,88.15
2023-04-15T08:13:04.976Z,86.73
2023-04-15T08:15:32.909Z,88.58
2023-04-15T08:18:00.895Z,87.16
2023-04-15T08:20:27.668Z,88.64
2023-04-15T08:22:54.254Z,87.51
2023-04-15T08:25:21.462Z,86.99
2023-04-15T08:27:48.097Z,87.58
2023-04-15T08:30:15.337Z,87.64
2023-04-15T08:32:47.807Z,88.28
2023-04-15T08:35:14.487Z,87.67
2023-04-15T08:37:41.264Z,87.68
2023-04-15T08:40:09.263Z,88.72
2023-04-15T08:42:43.020Z,88.36
2023-04-15T08:45:11.319Z,88.76
2023-04-15T08:47:38.884Z,89.23
2023-04-15T08:50:06.107Z,89.08
2023-04-15T08:52:32.896Z,87.96
2023-04-15T08:54:59.679Z,87.87
2023-04-15T08:57:29.317Z,87.50
2023-04-15T08:59:56.424Z,89.16
2023-04-15T09:02:23.760Z,88.39
2023-04-15T09:04:50.605Z,88.86
2023-04-15T09:07:17.330Z,88.41
2023-04-15T09:09:43.811Z,88.44
2023-04-15T09:12:11.558Z,87.39
2023-04-15T09:14:42.211Z,87.56
2023-04-15T09:17:10.364Z,87.40
2023-04-15T09:19:36.990Z,87.98
2023-04-15T09:22:03.444Z,87.49
2023-04-15T09:24:38.706Z,86.90
2023-04-15T09:27:05.453Z,87.14
2023-04-15T09:29:32.248Z,87.39
2023-04-15T09:32:19.594Z,88.47
2023-04-15T09:34:46.127Z,86.60
2023-04-15T09:37:28.657Z,86.27
2023-04-15T09:39:58.471Z,87.39
2023-04-15T09:42:25.161Z,86.48
2023-04-15T09:44:52.973Z,85.95
2023-04-15T09:47:32.384Z,85.71
2023-04-15T09:49:59.376Z,86.82
2023-04-15T09:52:26.041Z,88.21
2023-04-15T09:54:53.533Z,87.73
2023-04-15T09:57:19.983Z,87.71
2023-04-15T09:59:46.461Z,87.26
2023-04-15T10:02:13.034Z,87.06
2023-04-15T10:04:40.551Z,87.36
2023-04-15T10:07:08.609Z,86.66
2023-04-15T10:09:36.315Z,87.59
2023-04-15T10:12:05.204Z,87.48
2023-04-15T10:14:33.770Z,86.96
2023-04-15T10:17:01.920Z,86.46
2023-04-15T10:19:28.384Z,84.86
2023-04-15T10:21:54.874Z,83.95
2023-04-15T10:24:21.641Z,84.42
2023-04-15T10:26:48.111Z,84.13
2023-04-15T10:29:14.584Z,85.18
2023-04-15T10:31:41.535Z,84.10
2023-04-15T10:34:08.146Z,83.81
2023-04-15T10:36:34.671Z,83.58
2023-04-15T10:39:01.416Z,84.28
2023-04-15T10:41:31.164Z,83.16
2023-04-15T10:44:02.989Z,84.92
2023-04-15T10:46:43.309Z,84.37
2023-04-15T10:49:17.155Z,84.29
2023-04-15T10:51:46.011Z,82.85
2023-04-15T10:54:16.981Z,83.22
2023-04-15T10:56:46.881Z,81.75
2023-04-15T10:59:13.373Z,81.33
2023-04-15T11:02:12.673Z,80.49
2023-04-15T11:04:55.464Z,79.77
2023-04-15T11:07:38.740Z,79.70
2023-04-15T11:10:25.799Z,80.43
2023-04-15T11:13:11.121Z,80.83
2023-04-15T11:15:41.658Z,78.81
2023-04-15T11:18:22.271Z,79.10
2023-04-15T11:21:07.761Z,77.37
2023-04-15T11:23:36.732Z,77.94
2023-04-15T11:26:06.844Z,79.02
2023-04-15T11:28:33.585Z,77.58
2023-04-15T11:31:06.292Z,78.75
2023-04-15T11:33:32.696Z,76.78
2023-04-15T11:35:59.174Z,77.58
2023-04-15T11:38:25.737Z,76.15
2023-04-15T11:40:52.615Z,77.80
2023-04-15T11:43:22.947Z,77.83
2023-04-15T11:45:49.379Z,76.56
2023-04-15T11:48:15.907Z,76.40
2023-04-15T11:50:42.355Z,76.69
2023-04-15T11:53:13.322Z,77.51
2023-04-15T11:55:47.006Z,76.67
2023-04-15T11:58:16.405Z,74.74
2023-04-15T12:00:50.756Z,76.79
2023-04-15T12:03:19.778Z,77.17
2023-04-15T12:06:09.156Z,76.48
2023-04-15T12:08:54.143Z,77.70
2023-04-15T12:11:26.698Z,78.16
2023-04-15T12:13:57.076Z,77.66
2023-04-15T12:16:24.078Z,78.14
2023-04-15T12:18:56.056Z,78.50
2023-04-15T12:21:23.814Z,78.20
2023-04-15T12:23:53.446Z,77.57
2023-04-15T12:26:36.903Z,78.26
2023-04-15T12:29:08.012Z,77.57
2023-04-15T12:31:37.890Z,78.67
2023-04-15T12:34:07.638Z,76.56
2023-04-15T12:36:37.128Z,76.54
2023-04-15T12:39:06.824Z,76.38
2023-04-15T12:41:33.659Z,76.68
2023-04-15T12:44:00.441Z,76.67
2023-04-15T12:46:27.357Z,77.29
2023-04-15T12:48:53.942Z,76.63
2023-04-15T12:51:23.004Z,77.22
2023-04-15T12:53:49.795Z,76.96
2023-04-15T12:56:19.764Z,77.43
2023-04-15T12:58:46.452Z,78.30
2023-04-15T13:01:12.993Z,77.91
2023-04-15T13:03:39.585Z,78.43
2023-04-15T13:06:06.782Z,78.00
2023-04-15T13:08:33.303Z,78.39
2023-04-15T13:10:59.973Z,79.16
2023-04-15T13:13:27.088Z,78.24
2023-04-15T13:15:53.713Z,78.97
2023-04-15T13:18:20.504Z,79.66
2023-04-15T13:20:47.042Z,78.54
2023-04-15T13:23:13.577Z,78.55
2023-04-15T13:25:40.111Z,79.63
2023-04-15T13:28:06.633Z,79.63
2023-04-15T13:30:33.191Z,80.40
2023-04-15T13:32:59.701Z,78.99
2023-04-15T13:35:26.303Z,78.49
2023-04-15T13:37:54.491Z,79.36
2023-04-15T13:40:20.999Z,80.11
2023-04-15T13:42:47.541Z,79.62
2023-04-15T13:45:14.080Z,79.22
2023-04-15T13:47:40.587Z,79.22
2023-04-15T13:50:07.557Z,78.89
2023-04-15T13:52:34.425Z,79.32
2023-04-15T13:55:08.131Z,79.96
2023-04-15T13:57:46.408Z,79.73
2023-04-15T14:00:13.969Z,80.45
2023-04-15T14:02:40.861Z,80.85
2023-04-15T14:05:07.831Z,80.30
2023-04-15T14:07:34.289Z,81.73
2023-04-15T14:10:00.823Z,83.08
2023-04-15T14:12:27.381Z,82.75
2023-04-15T14:14:53.868Z,82.66
2023-04-15T14:17:20.522Z,83.92
2023-04-15T14:19:47.008Z,83.83
2023-04-15T14:22:13.569Z,83.49
2023-04-15T14:24:40.049Z,84.52
2023-04-15T14:27:06.590Z,84.34
2023-04-15T14:29:33.133Z,83.51
2023-04-15T14:32:04.147Z,84.54
2023-04-15T14:34:38.275Z,84.27
2023-04-15T14:37:05.061Z,84.17
2023-04-15T14:39:31.559Z,83.41
2023-04-15T14:41:58.094Z,83.43
2023-04-15T14:44:24.585Z,83.24
2023-04-15T14:46:51.671Z,83.94
2023-04-15T14:49:18.174Z,83.79
2023-04-15T14:51:44.642Z,83.43
2023-04-15T14:54:11.159Z,84.08
2023-04-15T14:56:37.776Z,82.49
2023-04-15T14:59:04.423Z,82.27
2023-04-15T15:01:31.089Z,82.41
2023-04-15T15:03:57.753Z,81.85
2023-04-15T15:06:24.302Z,82.17
2023-04-15T15:08:51.105Z,82.38
2023-04-15T15:11:17.692Z,83.00
2023-04-15T15:13:44.249Z,82.43
2023-04-15T15:16:13.116Z,82.41
2023-04-15T15:18:40.882Z,82.56
2023-04-15T15:21:07.380Z,82.22
2023-04-15T15:23:33.859Z,82.61
2023-04-15T15:26:00.457Z,82.89
2023-04-15T15:28:27.028Z,81.80
2023-04-15T15:30:53.551Z,81.91
2023-04-15T15:33:20.847Z,82.10
2023-04-15T15:35:47.345Z,81.72
2023-04-15T15:38:13.830Z,81.69
2023-04-15T15:40:40.379Z,80.97
2023-04-15T15:43:06.870Z,81.17
2023-04-15T15:45:33.623Z,80.90
2023-04-15T15:48:01.628Z,81.02
2023-04-15T15:50:28.145Z,81.67
2023-04-15T15:52:56.069Z,81.61
2023-04-15T15:55:25.313Z,81.44
2023-04-15T15:57:51.899Z,81.32
2023-04-15T16:00:18.534Z,80.52
2023-04-15T16:05:14.963Z,80.90
2023-04-15T16:07:41.450Z,80.38
2023-04-15T16:10:08.721Z,81.11
2023-04-15T16:12:35.204Z,80.22
2023-04-15T16:15:01.766Z,80.83
2023-04-15T16:17:28.403Z,79.76
2023-04-15T16:19:58.181Z,81.03
2023-04-15T16:22:27.592Z,80.55
2023-04-15T16:24:54.178Z,80.20
2023-04-15T16:27:20.863Z,80.06
2023-04-15T16:29:47.416Z,80.67
2023-04-15T16:32:14.209Z,79.72
2023-04-15T16:34:41.295Z,80.67
2023-04-15T16:37:07.797Z,79.77
2023-04-15T16:39:34.332Z,80.03
2023-04-15T16:42:02.287Z,80.26
2023-04-15T16:44:28.808Z,80.35
2023-04-15T16:46:55.741Z,80.08
2023-04-15T16:49:22.236Z,80.54
2023-04-15T16:51:48.695Z,80.65
2023-04-15T16:54:15.342Z,80.35
2023-04-15T16:56:41.812Z,79.93
2023-04-15T16:59:08.280Z,80.71
2023-04-15T17:01:34.991Z,81.18
2023-04-15T17:04:01.643Z,80.38
2023-04-15T17:06:28.423Z,80.47
2023-04-15T17:08:55.024Z,79.90
2023-04-15T17:11:21.523Z,80.16
2023-04-15T17:13:48.954Z,80.70
2023-04-15T17:16:15.575Z,80.51
2023-04-15T17:18:42.175Z,80.58
2023-04-15T17:21:08.644Z,80.41
2023-04-15T17:23:35.423Z,81.18
2023-04-15T17:26:01.990Z,81.50
2023-04-15T17:28:28.502Z,80.79
2023-04-15T17:30:55.045Z,81.07
2023-04-15T17:33:54.205Z,80.60
2023-04-15T17:36:08.818Z,81.09
2023-04-15T17:38:35.320Z,81.74
2023-04-15T17:41:01.796Z,81.22
2023-04-15T17:43:28.381Z,81.13
2023-04-15T17:45:55.574Z,82.06
2023-04-15T17:48:22.843Z,81.59
2023-04-15T17:50:51.289Z,82.51
2023-04-15T17:53:18.588Z,81.93
2023-04-15T17:55:45.132Z,81.73
2023-04-15T17:58:11.908Z,82.64
2023-04-15T18:00:38.432Z,81.77
2023-04-15T18:03:05.212Z,82.55
2023-04-15T18:05:31.794Z,82.43
2023-04-15T18:07:58.302Z,82.13
2023-04-15T18:10:24.844Z,82.43
2023-04-15T18:12:51.367Z,83.31
2023-04-15T18:15:18.590Z,82.82
2023-04-15T18:17:45.198Z,82.76
2023-04-15T18:20:12.790Z,82.91
2023-04-15T18:22:39.268Z,83.06
2023-04-15T18:25:06.349Z,83.28
2023-04-15T18:27:33.352Z,83.16
2023-04-15T18:29:59.951Z,83.13
2023-04-15T18:32:30.534Z,83.35
2023-04-15T18:34:58.222Z,83.37
2023-04-15T18:37:25.141Z,83.50
2023-04-15T18:39:51.689Z,84.29
2023-04-15T18:42:18.322Z,84.89
2023-04-15T18:44:44.793Z,84.71
2023-04-15T18:47:11.325Z,84.98
2023-04-15T18:49:37.856Z,85.15
2023-04-15T18:52:04.337Z,84.76
2023-04-15T18:54:30.959Z,84.16
2023-04-15T18:56:57.434Z,84.87
2023-04-15T18:59:30.181Z,84.81
2023-04-15T19:01:58.327Z,84.85
2023-04-15T19:04:25.033Z,84.60
2023-04-15T19:06:51.615Z,85.12
2023-04-15T19:09:18.158Z,85.17
2023-04-15T19:11:44.720Z,84.91
2023-04-15T19:14:11.604Z,86.30
2023-04-15T19:16:38.260Z,86.25
2023-04-15T19:19:06.583Z,84.74
2023-04-15T19:21:33.573Z,85.40
2023-04-15T19:24:00.669Z,85.39
2023-04-15T19:26:27.142Z,85.72
2023-04-15T19:28:53.841Z,86.27
2023-04-15T19:31:20.788Z,86.32
2023-04-15T19:33:47.414Z,86.19
2023-04-15T19:36:13.917Z,86.82
2023-04-15T19:38:40.779Z,86.54
2023-04-15T19:41:09.022Z,86.89
2023-04-15T19:43:35.588Z,86.12
2023-04-15T19:46:02.171Z,86.56
2023-04-15T19:48:28.673Z,86.54
2023-04-15T19:50:55.182Z,86.38
2023-04-15T19:53:21.697Z,87.13
2023-04-15T19:55:48.776Z,88.31
2023-04-15T19:58:15.453Z,87.88
2023-04-15T20:00:42.053Z,87.94
2023-04-15T20:03:08.625Z,88.16
2023-04-15T20:05:35.642Z,89.15
2023-04-15T20:08:02.506Z,88.76
2023-04-15T20:10:31.061Z,87.90
2023-04-15T20:12:57.609Z,87.76
2023-04-15T20:15:24.341Z,88.34
2023-04-15T20:17:51.014Z,87.69
2023-04-15T20:20:17.551Z,87.87
2023-04-15T20:22:44.063Z,88.52
2023-04-15T20:25:10.691Z,88.32
2023-04-15T20:27:37.200Z,88.40
2023-04-15T20:30:05.007Z,88.90
2023-04-15T20:32:35.256Z,88.52
2023-04-15T20:35:03.106Z,87.21
2023-04-15T20:37:30.291Z,88.76
2023-04-15T20:39:56.751Z,87.56
2023-04-15T20:42:23.368Z,87.21
2023-04-15T20:44:49.854Z,87.86
2023-04-15T20:47:16.504Z,87.52
2023-04-15T20:49:43.047Z,88.94
2023-04-15T20:52:09.639Z,88.48
2023-04-15T20:54:36.094Z,87.76
2023-04-15T20:57:02.573Z,87.96
2023-04-15T20:59:29.102Z,88.30
2023-04-15T21:01:56.997Z,89.13
2023-04-15T21:04:24.432Z,89.94
2023-04-15T21:06:52.166Z,90.25
2023-04-15T21:09:18.863Z,89.46
2023-04-15T21:14:19.530Z,90.45
2023-04-15T21:16:46.241Z,90.38
2023-04-15T21:19:12.779Z,89.72
2023-04-15T21:21:39.413Z,89.79
2023-04-15T21:24:07.587Z,89.62
2023-04-15T21:26:34.205Z,90.21
2023-04-15T21:29:01.027Z,90.28
2023-04-15T21:31:27.522Z,89.79
2023-04-15T21:33:54.094Z,89.41
2023-04-15T21:36:20.698Z,89.78
2023-04-15T21:38:47.295Z,90.39
2023-04-15T21:41:13.764Z,90.34
2023-04-15T21:43:40.305Z,89.62
2023-04-15T21:46:22.061Z,90.03
2023-04-15T21:48:51.546Z,90.49
2023-04-15T21:51:18.026Z,89.83
2023-04-15T21:53:44.573Z,89.74
2023-04-15T21:56:11.298Z,90.15
2023-04-15T21:58:37.805Z,90.20
2023-04-15T22:01:04.526Z,89.75
2023-04-15T22:03:33.624Z,90.45
2023-04-15T22:06:01.764Z,90.63
2023-04-15T22:08:28.325Z,90.31
2023-04-15T22:10:54.997Z,90.19
2023-04-15T22:13:21.459Z,90.95
2023-04-15T22:15:48.190Z,91.20
2023-04-15T22:18:14.695Z,91.17
2023-04-15T22:20:41.416Z,91.70
2023-04-15T22:23:08.912Z,91.72
2023-04-15T22:25:38.444Z,91.29
2023-04-15T22:28:09.348Z,91.05
2023-04-15T22:30:42.271Z,90.98
2023-04-15T22:33:09.160Z,91.15
2023-04-15T22:35:37.147Z,91.44
2023-04-15T22:38:03.790Z,90.94
2023-04-15T22:40:30.451Z,91.88
2023-04-15T22:42:56.944Z,91.85
2023-04-15T22:45:23.580Z,91.95
2023-04-15T22:47:50.161Z,92.08
2023-04-15T22:50:16.789Z,91.91
2023-04-15T22:52:46.142Z,91.57
2023-04-15T22:55:12.836Z,91.19
2023-04-15T22:57:39.289Z,91.81
2023-04-15T23:00:08.736Z,91.50
2023-04-15T23:02:35.262Z,92.40
2023-04-15T23:05:05.031Z,91.78
2023-04-15T23:07:39.325Z,92.09
2023-04-15T23:10:06.926Z,92.30
2023-04-15T23:12:33.402Z,92.63
2023-04-15T23:14:59.916Z,93.03
2023-04-15T23:17:26.739Z,92.20
2023-04-15T23:19:53.336Z,92.63
2023-04-15T23:22:20.039Z,92.37
2023-04-15T23:24:46.607Z,92.34
2023-04-15T23:27:13.146Z,92.29
2023-04-15T23:29:39.655Z,92.53
2023-04-15T23:32:06.555Z,92.12
2023-04-15T23:34:33.044Z,92.63
2023-04-15T23:36:59.682Z,92.74
2023-04-15T23:39:26.446Z,91.95
2023-04-15T23:41:53.167Z,91.93
2023-04-15T23:44:20.031Z,91.98
2023-04-15T23:46:46.567Z,92.21
2023-04-15T23:49:13.313Z,91.09
2023-04-15T23:51:39.830Z,91.53
2023-04-15T23:54:06.333Z,91.34
2023-04-15T23:56:32.801Z,92.68
2023-04-15T23:58:59.269Z,92.43
